sensor_id;sensor_type;location;lat;lon;timestamp;temperature;humidity
13251;DHT22;6692;50.710;7.180;2024-03-06T00:01:59;8.40;99.90
13251;DHT22;6692;50.710;7.180;2024-03-06T00:04:00;8.50;99.90
13251;DHT22;6692;50.710;7.180;2024-03-06T00:06:00;8.50;99.90
13251;DHT22;6692;50.710;7.180;2024-03-06T00:08:01;8.50;99.90
13251;DHT22;6692;50.710;7.180;2024-03-06T00:10:03;8.50;99.90
13251;DHT22;6692;50.710;7.180;2024-03-06T00:12:04;8.60;99.90
13251;DHT22;6692;50.710;7.180;2024-03-06T00:14:05;8.50;99.90
13251;DHT22;6692;50.710;7.180;2024-03-06T00:16:06;8.60;99.90
13251;DHT22;6692;50.710;7.180;2024-03-06T00:18:07;8.50;99.90
13251;DHT22;6692;50.710;7.180;2024-03-06T00:20:09;8.50;99.90
13251;DHT22;6692;50.710;7.180;2024-03-06T00:22:09;8.50;99.90
13251;DHT22;6692;50.710;7.180;2024-03-06T00:24:11;8.50;99.90
13251;DHT22;6692;50.710;7.180;2024-03-06T00:26:12;8.50;99.90
13251;DHT22;6692;50.710;7.180;2024-03-06T00:28:12;8.50;99.90
13251;DHT22;6692;50.710;7.180;2024-03-06T00:30:13;8.60;99.90
13251;DHT22;6692;50.710;7.180;2024-03-06T00:32:14;8.60;99.90
13251;DHT22;6692;50.710;7.180;2024-03-06T00:34:14;8.50;99.90
13251;DHT22;6692;50.710;7.180;2024-03-06T00:36:15;8.50;99.90
13251;DHT22;6692;50.710;7.180;2024-03-06T00:38:16;8.40;99.90
13251;DHT22;6692;50.710;7.180;2024-03-06T00:40:16;8.40;99.90
13251;DHT22;6692;50.710;7.180;2024-03-06T00:42:17;8.40;99.90
13251;DHT22;6692;50.710;7.180;2024-03-06T00:44:18;8.40;99.90
13251;DHT22;6692;50.710;7.180;2024-03-06T00:46:19;8.30;99.90
13251;DHT22;6692;50.710;7.180;2024-03-06T00:48:19;8.30;99.90
13251;DHT22;6692;50.710;7.180;2024-03-06T00:50:21;8.30;99.90
13251;DHT22;6692;50.710;7.180;2024-03-06T00:52:21;8.30;99.90
13251;DHT22;6692;50.710;7.180;2024-03-06T00:54:22;8.30;99.90
13251;DHT22;6692;50.710;7.180;2024-03-06T00:56:23;8.30;99.90
13251;DHT22;6692;50.710;7.180;2024-03-06T00:58:24;8.30;99.90
13251;DHT22;6692;50.710;7.180;2024-03-06T01:00:25;8.20;99.90
13251;DHT22;6692;50.710;7.180;2024-03-06T01:02:25;8.20;99.90
13251;DHT22;6692;50.710;7.180;2024-03-06T01:04:27;8.30;99.90
13251;DHT22;6692;50.710;7.180;2024-03-06T01:06:28;8.20;99.90
13251;DHT22;6692;50.710;7.180;2024-03-06T01:08:29;8.20;99.90
13251;DHT22;6692;50.710;7.180;2024-03-06T01:10:29;8.20;99.90
13251;DHT22;6692;50.710;7.180;2024-03-06T01:12:30;8.20;99.90
13251;DHT22;6692;50.710;7.180;2024-03-06T01:14:31;8.20;99.90
13251;DHT22;6692;50.710;7.180;2024-03-06T01:16:31;8.20;99.90
13251;DHT22;6692;50.710;7.180;2024-03-06T01:18:32;8.10;99.90
13251;DHT22;6692;50.710;7.180;2024-03-06T01:20:33;8.10;99.90
13251;DHT22;6692;50.710;7.180;2024-03-06T01:22:34;8.10;99.90
13251;DHT22;6692;50.710;7.180;2024-03-06T01:24:34;8.00;99.90
13251;DHT22;6692;50.710;7.180;2024-03-06T01:26:35;8.00;99.90
13251;DHT22;6692;50.710;7.180;2024-03-06T01:28:36;8.00;99.90
13251;DHT22;6692;50.710;7.180;2024-03-06T01:30:36;8.00;99.90
13251;DHT22;6692;50.710;7.180;2024-03-06T01:32:37;8.00;99.90
13251;DHT22;6692;50.710;7.180;2024-03-06T01:34:38;8.00;99.90
13251;DHT22;6692;50.710;7.180;2024-03-06T01:36:39;7.90;99.90
13251;DHT22;6692;50.710;7.180;2024-03-06T01:38:40;7.90;99.90
13251;DHT22;6692;50.710;7.180;2024-03-06T01:40:43;7.80;99.90
13251;DHT22;6692;50.710;7.180;2024-03-06T01:42:43;7.80;99.90
13251;DHT22;6692;50.710;7.180;2024-03-06T01:44:44;7.70;99.90
13251;DHT22;6692;50.710;7.180;2024-03-06T01:46:46;7.60;99.90
13251;DHT22;6692;50.710;7.180;2024-03-06T01:48:47;7.60;99.90
13251;DHT22;6692;50.710;7.180;2024-03-06T01:50:48;7.50;99.90
13251;DHT22;6692;50.710;7.180;2024-03-06T01:52:49;7.50;99.90
13251;DHT22;6692;50.710;7.180;2024-03-06T01:54:50;7.50;99.90
13251;DHT22;6692;50.710;7.180;2024-03-06T01:56:51;7.40;99.90
13251;DHT22;6692;50.710;7.180;2024-03-06T01:58:51;7.40;99.90
13251;DHT22;6692;50.710;7.180;2024-03-06T02:00:53;7.40;99.90
13251;DHT22;6692;50.710;7.180;2024-03-06T02:02:53;7.40;99.90
13251;DHT22;6692;50.710;7.180;2024-03-06T02:04:55;7.40;99.90
13251;DHT22;6692;50.710;7.180;2024-03-06T02:06:55;7.40;99.90
13251;DHT22;6692;50.710;7.180;2024-03-06T02:08:56;7.40;99.90
13251;DHT22;6692;50.710;7.180;2024-03-06T02:10:57;7.40;99.90
13251;DHT22;6692;50.710;7.180;2024-03-06T02:12:58;7.50;99.90
13251;DHT22;6692;50.710;7.180;2024-03-06T02:14:58;7.50;99.90
13251;DHT22;6692;50.710;7.180;2024-03-06T02:16:59;7.60;99.90
13251;DHT22;6692;50.710;7.180;2024-03-06T02:19:00;7.60;99.90
13251;DHT22;6692;50.710;7.180;2024-03-06T02:21:00;7.60;99.90
13251;DHT22;6692;50.710;7.180;2024-03-06T02:23:01;7.60;99.90
13251;DHT22;6692;50.710;7.180;2024-03-06T02:25:02;7.50;99.90
13251;DHT22;6692;50.710;7.180;2024-03-06T02:27:03;7.50;99.90
13251;DHT22;6692;50.710;7.180;2024-03-06T02:29:04;7.40;99.90
13251;DHT22;6692;50.710;7.180;2024-03-06T02:31:04;7.40;99.90
13251;DHT22;6692;50.710;7.180;2024-03-06T02:33:05;7.40;99.90
13251;DHT22;6692;50.710;7.180;2024-03-06T02:35:06;7.40;99.90
13251;DHT22;6692;50.710;7.180;2024-03-06T02:37:08;7.50;99.90
13251;DHT22;6692;50.710;7.180;2024-03-06T02:39:09;7.50;99.90
13251;DHT22;6692;50.710;7.180;2024-03-06T02:41:10;7.50;99.90
13251;DHT22;6692;50.710;7.180;2024-03-06T02:43:10;7.50;99.90
13251;DHT22;6692;50.710;7.180;2024-03-06T02:45:11;7.50;99.90
13251;DHT22;6692;50.710;7.180;2024-03-06T02:47:12;7.50;99.90
13251;DHT22;6692;50.710;7.180;2024-03-06T02:49:13;7.40;99.90
13251;DHT22;6692;50.710;7.180;2024-03-06T02:51:17;7.30;99.90
13251;DHT22;6692;50.710;7.180;2024-03-06T02:53:14;7.40;99.90
13251;DHT22;6692;50.710;7.180;2024-03-06T02:55:15;7.40;99.90
13251;DHT22;6692;50.710;7.180;2024-03-06T02:57:16;7.30;99.90
13251;DHT22;6692;50.710;7.180;2024-03-06T02:59:18;7.30;99.90
13251;DHT22;6692;50.710;7.180;2024-03-06T03:01:18;7.30;99.90
13251;DHT22;6692;50.710;7.180;2024-03-06T03:03:19;7.30;99.90
13251;DHT22;6692;50.710;7.180;2024-03-06T03:05:20;7.30;99.90
13251;DHT22;6692;50.710;7.180;2024-03-06T03:07:21;7.20;99.90
13251;DHT22;6692;50.710;7.180;2024-03-06T03:09:21;7.20;99.90
13251;DHT22;6692;50.710;7.180;2024-03-06T03:11:22;7.10;99.90
13251;DHT22;6692;50.710;7.180;2024-03-06T03:13:23;7.10;99.90
13251;DHT22;6692;50.710;7.180;2024-03-06T03:15:23;7.00;99.90
13251;DHT22;6692;50.710;7.180;2024-03-06T03:17:24;6.90;99.90
13251;DHT22;6692;50.710;7.180;2024-03-06T03:19:25;6.90;99.90
13251;DHT22;6692;50.710;7.180;2024-03-06T03:21:26;6.90;99.90
13251;DHT22;6692;50.710;7.180;2024-03-06T03:23:27;6.80;99.90
13251;DHT22;6692;50.710;7.180;2024-03-06T03:25:27;6.80;99.90
13251;DHT22;6692;50.710;7.180;2024-03-06T03:27:29;6.70;99.90
13251;DHT22;6692;50.710;7.180;2024-03-06T03:29:30;6.70;99.90
13251;DHT22;6692;50.710;7.180;2024-03-06T03:31:30;6.70;99.90
13251;DHT22;6692;50.710;7.180;2024-03-06T03:33:31;6.60;99.90
13251;DHT22;6692;50.710;7.180;2024-03-06T03:35:32;6.60;99.90
13251;DHT22;6692;50.710;7.180;2024-03-06T03:37:32;6.50;99.90
13251;DHT22;6692;50.710;7.180;2024-03-06T03:39:34;6.50;99.90
13251;DHT22;6692;50.710;7.180;2024-03-06T03:41:34;6.50;99.90
13251;DHT22;6692;50.710;7.180;2024-03-06T03:43:35;6.50;99.90
13251;DHT22;6692;50.710;7.180;2024-03-06T03:45:36;6.60;99.90
13251;DHT22;6692;50.710;7.180;2024-03-06T03:47:37;6.50;99.90
13251;DHT22;6692;50.710;7.180;2024-03-06T03:49:38;6.60;99.90
13251;DHT22;6692;50.710;7.180;2024-03-06T03:51:39;6.50;99.90
13251;DHT22;6692;50.710;7.180;2024-03-06T03:53:39;6.50;99.90
13251;DHT22;6692;50.710;7.180;2024-03-06T03:55:40;6.50;99.90
13251;DHT22;6692;50.710;7.180;2024-03-06T03:57:41;6.50;99.90
13251;DHT22;6692;50.710;7.180;2024-03-06T03:59:41;6.50;99.90
13251;DHT22;6692;50.710;7.180;2024-03-06T04:01:44;6.50;99.90
13251;DHT22;6692;50.710;7.180;2024-03-06T04:03:43;6.50;99.90
13251;DHT22;6692;50.710;7.180;2024-03-06T04:05:46;6.50;99.90
13251;DHT22;6692;50.710;7.180;2024-03-06T04:07:46;6.50;99.90
13251;DHT22;6692;50.710;7.180;2024-03-06T04:09:46;6.50;99.90
13251;DHT22;6692;50.710;7.180;2024-03-06T04:11:47;6.40;99.90
13251;DHT22;6692;50.710;7.180;2024-03-06T04:13:48;6.40;99.90
13251;DHT22;6692;50.710;7.180;2024-03-06T04:15:48;6.40;99.90
13251;DHT22;6692;50.710;7.180;2024-03-06T04:17:50;6.30;99.90
13251;DHT22;6692;50.710;7.180;2024-03-06T04:19:50;6.30;99.90
13251;DHT22;6692;50.710;7.180;2024-03-06T04:21:50;6.20;99.90
13251;DHT22;6692;50.710;7.180;2024-03-06T04:23:51;6.10;99.90
13251;DHT22;6692;50.710;7.180;2024-03-06T04:25:52;6.10;99.90
13251;DHT22;6692;50.710;7.180;2024-03-06T04:27:52;6.10;99.90
13251;DHT22;6692;50.710;7.180;2024-03-06T04:29:53;6.10;99.90
13251;DHT22;6692;50.710;7.180;2024-03-06T04:31:54;6.10;99.90
13251;DHT22;6692;50.710;7.180;2024-03-06T04:33:54;6.10;99.90
13251;DHT22;6692;50.710;7.180;2024-03-06T04:35:55;6.10;99.90
13251;DHT22;6692;50.710;7.180;2024-03-06T04:37:56;6.00;99.90
13251;DHT22;6692;50.710;7.180;2024-03-06T04:39:56;6.00;99.90
13251;DHT22;6692;50.710;7.180;2024-03-06T04:41:57;6.10;99.90
13251;DHT22;6692;50.710;7.180;2024-03-06T04:43:59;6.10;99.90
13251;DHT22;6692;50.710;7.180;2024-03-06T04:45:59;6.10;99.90
13251;DHT22;6692;50.710;7.180;2024-03-06T04:48:01;6.10;99.90
13251;DHT22;6692;50.710;7.180;2024-03-06T04:50:01;6.10;99.90
13251;DHT22;6692;50.710;7.180;2024-03-06T04:52:03;6.10;99.90
13251;DHT22;6692;50.710;7.180;2024-03-06T04:54:04;6.10;99.90
13251;DHT22;6692;50.710;7.180;2024-03-06T04:56:05;6.20;99.90
13251;DHT22;6692;50.710;7.180;2024-03-06T04:58:06;6.10;99.90
13251;DHT22;6692;50.710;7.180;2024-03-06T05:00:08;6.20;99.90
13251;DHT22;6692;50.710;7.180;2024-03-06T05:02:09;6.20;99.90
13251;DHT22;6692;50.710;7.180;2024-03-06T05:04:10;6.20;99.90
13251;DHT22;6692;50.710;7.180;2024-03-06T05:06:10;6.20;99.90
13251;DHT22;6692;50.710;7.180;2024-03-06T05:08:11;6.20;99.90
13251;DHT22;6692;50.710;7.180;2024-03-06T05:10:12;6.20;99.90
13251;DHT22;6692;50.710;7.180;2024-03-06T05:12:13;6.20;99.90
13251;DHT22;6692;50.710;7.180;2024-03-06T05:14:13;6.10;99.90
13251;DHT22;6692;50.710;7.180;2024-03-06T05:16:14;6.10;99.90
13251;DHT22;6692;50.710;7.180;2024-03-06T05:18:15;6.10;99.90
13251;DHT22;6692;50.710;7.180;2024-03-06T05:20:16;6.10;99.90
13251;DHT22;6692;50.710;7.180;2024-03-06T05:22:17;6.10;99.90
13251;DHT22;6692;50.710;7.180;2024-03-06T05:24:17;6.10;99.90
13251;DHT22;6692;50.710;7.180;2024-03-06T05:26:18;6.00;99.90
13251;DHT22;6692;50.710;7.180;2024-03-06T05:28:19;6.00;99.90
13251;DHT22;6692;50.710;7.180;2024-03-06T05:30:20;6.00;99.90
13251;DHT22;6692;50.710;7.180;2024-03-06T05:32:20;5.90;99.90
13251;DHT22;6692;50.710;7.180;2024-03-06T05:34:21;5.90;99.90
13251;DHT22;6692;50.710;7.180;2024-03-06T05:36:22;5.90;99.90
13251;DHT22;6692;50.710;7.180;2024-03-06T05:38:22;5.80;99.90
13251;DHT22;6692;50.710;7.180;2024-03-06T05:40:23;5.70;99.90
13251;DHT22;6692;50.710;7.180;2024-03-06T05:42:24;5.70;99.90
13251;DHT22;6692;50.710;7.180;2024-03-06T05:44:25;5.80;99.90
13251;DHT22;6692;50.710;7.180;2024-03-06T05:46:25;5.80;99.90
13251;DHT22;6692;50.710;7.180;2024-03-06T05:48:26;5.80;99.90
13251;DHT22;6692;50.710;7.180;2024-03-06T05:50:27;5.80;99.90
13251;DHT22;6692;50.710;7.180;2024-03-06T05:52:27;5.80;99.90
13251;DHT22;6692;50.710;7.180;2024-03-06T05:54:28;5.80;99.90
13251;DHT22;6692;50.710;7.180;2024-03-06T05:56:29;5.80;99.90
13251;DHT22;6692;50.710;7.180;2024-03-06T05:58:29;5.80;99.90
13251;DHT22;6692;50.710;7.180;2024-03-06T06:00:30;5.80;99.90
13251;DHT22;6692;50.710;7.180;2024-03-06T06:02:31;5.80;99.90
13251;DHT22;6692;50.710;7.180;2024-03-06T06:04:32;5.90;99.90
13251;DHT22;6692;50.710;7.180;2024-03-06T06:06:33;5.80;99.90
13251;DHT22;6692;50.710;7.180;2024-03-06T06:08:34;5.80;99.90
13251;DHT22;6692;50.710;7.180;2024-03-06T06:10:35;5.80;99.90
13251;DHT22;6692;50.710;7.180;2024-03-06T06:12:36;5.80;99.90
13251;DHT22;6692;50.710;7.180;2024-03-06T06:14:37;5.70;99.90
13251;DHT22;6692;50.710;7.180;2024-03-06T06:16:38;5.70;99.90
13251;DHT22;6692;50.710;7.180;2024-03-06T06:18:40;5.70;99.90
13251;DHT22;6692;50.710;7.180;2024-03-06T06:20:41;5.60;99.90
13251;DHT22;6692;50.710;7.180;2024-03-06T06:22:42;5.60;99.90
13251;DHT22;6692;50.710;7.180;2024-03-06T06:24:42;5.60;99.90
13251;DHT22;6692;50.710;7.180;2024-03-06T06:26:43;5.60;99.90
13251;DHT22;6692;50.710;7.180;2024-03-06T06:28:44;5.70;99.90
13251;DHT22;6692;50.710;7.180;2024-03-06T06:30:45;5.70;99.90
13251;DHT22;6692;50.710;7.180;2024-03-06T06:32:45;5.70;99.90
13251;DHT22;6692;50.710;7.180;2024-03-06T06:34:46;5.80;99.90
13251;DHT22;6692;50.710;7.180;2024-03-06T06:36:47;5.80;99.90
13251;DHT22;6692;50.710;7.180;2024-03-06T06:38:47;5.90;99.90
13251;DHT22;6692;50.710;7.180;2024-03-06T06:40:48;5.80;99.90
13251;DHT22;6692;50.710;7.180;2024-03-06T06:42:49;5.80;99.90
13251;DHT22;6692;50.710;7.180;2024-03-06T06:44:51;5.90;99.90
13251;DHT22;6692;50.710;7.180;2024-03-06T06:46:52;5.90;99.90
13251;DHT22;6692;50.710;7.180;2024-03-06T06:48:53;6.00;99.90
13251;DHT22;6692;50.710;7.180;2024-03-06T06:50:54;6.00;99.90
13251;DHT22;6692;50.710;7.180;2024-03-06T06:52:55;6.10;99.90
13251;DHT22;6692;50.710;7.180;2024-03-06T06:54:56;6.10;99.90
13251;DHT22;6692;50.710;7.180;2024-03-06T06:56:57;6.10;99.90
13251;DHT22;6692;50.710;7.180;2024-03-06T06:58:57;6.10;99.90
13251;DHT22;6692;50.710;7.180;2024-03-06T07:00:59;6.20;99.90
13251;DHT22;6692;50.710;7.180;2024-03-06T07:02:59;6.20;99.90
13251;DHT22;6692;50.710;7.180;2024-03-06T07:05:00;6.10;99.90
13251;DHT22;6692;50.710;7.180;2024-03-06T07:07:01;6.20;99.90
13251;DHT22;6692;50.710;7.180;2024-03-06T07:09:02;6.10;99.90
13251;DHT22;6692;50.710;7.180;2024-03-06T07:11:03;6.10;99.90
13251;DHT22;6692;50.710;7.180;2024-03-06T07:13:04;6.10;99.90
13251;DHT22;6692;50.710;7.180;2024-03-06T07:15:05;6.10;99.90
13251;DHT22;6692;50.710;7.180;2024-03-06T07:17:06;6.00;99.90
13251;DHT22;6692;50.710;7.180;2024-03-06T07:19:06;6.00;99.90
13251;DHT22;6692;50.710;7.180;2024-03-06T07:21:07;6.00;99.90
13251;DHT22;6692;50.710;7.180;2024-03-06T07:23:08;6.00;99.90
13251;DHT22;6692;50.710;7.180;2024-03-06T07:25:09;6.00;99.90
13251;DHT22;6692;50.710;7.180;2024-03-06T07:27:10;5.90;99.90
13251;DHT22;6692;50.710;7.180;2024-03-06T07:29:11;5.90;99.90
13251;DHT22;6692;50.710;7.180;2024-03-06T07:31:14;5.90;99.90
13251;DHT22;6692;50.710;7.180;2024-03-06T07:33:15;5.90;99.90
13251;DHT22;6692;50.710;7.180;2024-03-06T07:35:16;5.90;99.90
13251;DHT22;6692;50.710;7.180;2024-03-06T07:37:16;5.90;99.90
13251;DHT22;6692;50.710;7.180;2024-03-06T07:39:18;5.90;99.90
13251;DHT22;6692;50.710;7.180;2024-03-06T07:41:18;5.90;99.90
13251;DHT22;6692;50.710;7.180;2024-03-06T07:43:18;5.90;99.90
13251;DHT22;6692;50.710;7.180;2024-03-06T07:45:19;5.90;99.90
13251;DHT22;6692;50.710;7.180;2024-03-06T07:47:20;5.90;99.90
13251;DHT22;6692;50.710;7.180;2024-03-06T07:49:21;5.90;99.90
13251;DHT22;6692;50.710;7.180;2024-03-06T07:51:22;5.90;99.90
13251;DHT22;6692;50.710;7.180;2024-03-06T07:53:23;6.00;99.90
13251;DHT22;6692;50.710;7.180;2024-03-06T07:55:24;6.00;99.90
13251;DHT22;6692;50.710;7.180;2024-03-06T07:57:24;6.10;99.90
13251;DHT22;6692;50.710;7.180;2024-03-06T07:59:26;6.20;99.90
13251;DHT22;6692;50.710;7.180;2024-03-06T08:01:26;6.20;99.90
13251;DHT22;6692;50.710;7.180;2024-03-06T08:03:28;6.40;99.90
13251;DHT22;6692;50.710;7.180;2024-03-06T08:05:29;6.30;99.90
13251;DHT22;6692;50.710;7.180;2024-03-06T08:07:29;6.40;99.90
13251;DHT22;6692;50.710;7.180;2024-03-06T08:09:30;6.40;99.90
13251;DHT22;6692;50.710;7.180;2024-03-06T08:11:31;6.40;99.90
13251;DHT22;6692;50.710;7.180;2024-03-06T08:13:32;6.50;99.90
13251;DHT22;6692;50.710;7.180;2024-03-06T08:15:32;6.50;99.90
13251;DHT22;6692;50.710;7.180;2024-03-06T08:17:33;6.50;99.90
13251;DHT22;6692;50.710;7.180;2024-03-06T08:19:34;6.50;99.90
13251;DHT22;6692;50.710;7.180;2024-03-06T08:21:35;6.40;99.90
13251;DHT22;6692;50.710;7.180;2024-03-06T08:23:36;6.50;99.90
13251;DHT22;6692;50.710;7.180;2024-03-06T08:25:36;6.50;99.90
13251;DHT22;6692;50.710;7.180;2024-03-06T08:27:40;6.70;99.90
13251;DHT22;6692;50.710;7.180;2024-03-06T08:29:39;6.70;99.90
13251;DHT22;6692;50.710;7.180;2024-03-06T08:31:40;6.90;99.90
13251;DHT22;6692;50.710;7.180;2024-03-06T08:33:41;6.90;99.90
13251;DHT22;6692;50.710;7.180;2024-03-06T08:35:42;7.00;99.90
13251;DHT22;6692;50.710;7.180;2024-03-06T08:37:42;7.00;99.90
13251;DHT22;6692;50.710;7.180;2024-03-06T08:39:43;7.00;99.90
13251;DHT22;6692;50.710;7.180;2024-03-06T08:41:44;7.00;99.90
13251;DHT22;6692;50.710;7.180;2024-03-06T08:43:44;7.00;99.90
13251;DHT22;6692;50.710;7.180;2024-03-06T08:45:48;6.90;99.90
13251;DHT22;6692;50.710;7.180;2024-03-06T08:47:48;7.00;99.90
13251;DHT22;6692;50.710;7.180;2024-03-06T08:49:49;7.00;99.90
13251;DHT22;6692;50.710;7.180;2024-03-06T08:51:50;7.00;99.90
13251;DHT22;6692;50.710;7.180;2024-03-06T08:53:50;7.00;99.90
13251;DHT22;6692;50.710;7.180;2024-03-06T08:55:52;6.90;99.90
13251;DHT22;6692;50.710;7.180;2024-03-06T08:57:52;6.90;99.90
13251;DHT22;6692;50.710;7.180;2024-03-06T08:59:54;6.90;99.90
13251;DHT22;6692;50.710;7.180;2024-03-06T09:01:54;6.90;99.90
13251;DHT22;6692;50.710;7.180;2024-03-06T09:03:55;6.90;99.90
13251;DHT22;6692;50.710;7.180;2024-03-06T09:05:55;6.90;99.90
13251;DHT22;6692;50.710;7.180;2024-03-06T09:07:57;6.90;99.90
13251;DHT22;6692;50.710;7.180;2024-03-06T09:09:58;6.90;99.90
13251;DHT22;6692;50.710;7.180;2024-03-06T09:11:59;6.90;99.90
13251;DHT22;6692;50.710;7.180;2024-03-06T09:13:59;6.90;99.90
13251;DHT22;6692;50.710;7.180;2024-03-06T09:16:00;7.00;99.90
13251;DHT22;6692;50.710;7.180;2024-03-06T09:18:01;7.00;99.90
13251;DHT22;6692;50.710;7.180;2024-03-06T09:20:02;7.00;99.90
13251;DHT22;6692;50.710;7.180;2024-03-06T09:22:08;7.00;99.90
13251;DHT22;6692;50.710;7.180;2024-03-06T09:24:10;7.10;99.90
13251;DHT22;6692;50.710;7.180;2024-03-06T09:26:11;7.10;99.90
13251;DHT22;6692;50.710;7.180;2024-03-06T09:28:12;7.20;99.90
13251;DHT22;6692;50.710;7.180;2024-03-06T09:30:13;7.20;99.90
13251;DHT22;6692;50.710;7.180;2024-03-06T09:32:14;7.30;99.90
13251;DHT22;6692;50.710;7.180;2024-03-06T09:34:15;7.30;99.90
13251;DHT22;6692;50.710;7.180;2024-03-06T09:36:16;7.30;99.90
13251;DHT22;6692;50.710;7.180;2024-03-06T09:38:17;7.40;99.90
13251;DHT22;6692;50.710;7.180;2024-03-06T09:40:19;7.40;99.90
13251;DHT22;6692;50.710;7.180;2024-03-06T09:42:20;7.50;99.90
13251;DHT22;6692;50.710;7.180;2024-03-06T09:44:20;7.60;99.90
13251;DHT22;6692;50.710;7.180;2024-03-06T09:46:21;7.60;99.90
13251;DHT22;6692;50.710;7.180;2024-03-06T09:48:22;7.60;99.90
13251;DHT22;6692;50.710;7.180;2024-03-06T09:50:23;7.70;99.90
13251;DHT22;6692;50.710;7.180;2024-03-06T09:52:23;7.70;99.90
13251;DHT22;6692;50.710;7.180;2024-03-06T09:54:24;7.80;99.90
13251;DHT22;6692;50.710;7.180;2024-03-06T09:56:25;7.90;99.90
13251;DHT22;6692;50.710;7.180;2024-03-06T09:58:26;7.80;99.90
13251;DHT22;6692;50.710;7.180;2024-03-06T10:00:27;7.90;99.90
13251;DHT22;6692;50.710;7.180;2024-03-06T10:04:47;8.10;99.90
13251;DHT22;6692;50.710;7.180;2024-03-06T10:06:48;8.10;99.90
13251;DHT22;6692;50.710;7.180;2024-03-06T10:08:50;8.20;99.90
13251;DHT22;6692;50.710;7.180;2024-03-06T10:10:49;8.10;99.90
13251;DHT22;6692;50.710;7.180;2024-03-06T10:12:50;8.20;99.90
13251;DHT22;6692;50.710;7.180;2024-03-06T10:14:51;8.20;99.90
13251;DHT22;6692;50.710;7.180;2024-03-06T10:16:55;8.20;99.90
13251;DHT22;6692;50.710;7.180;2024-03-06T10:18:55;8.20;99.90
13251;DHT22;6692;50.710;7.180;2024-03-06T10:20:57;8.30;99.90
13251;DHT22;6692;50.710;7.180;2024-03-06T10:22:57;8.20;99.90
13251;DHT22;6692;50.710;7.180;2024-03-06T10:24:58;8.30;99.90
13251;DHT22;6692;50.710;7.180;2024-03-06T10:26:59;8.30;99.90
13251;DHT22;6692;50.710;7.180;2024-03-06T10:29:00;8.40;99.90
13251;DHT22;6692;50.710;7.180;2024-03-06T10:31:03;8.50;99.90
13251;DHT22;6692;50.710;7.180;2024-03-06T10:33:03;8.50;99.90
13251;DHT22;6692;50.710;7.180;2024-03-06T10:35:05;8.60;99.90
13251;DHT22;6692;50.710;7.180;2024-03-06T10:37:06;8.60;99.90
13251;DHT22;6692;50.710;7.180;2024-03-06T10:39:07;8.70;99.90
13251;DHT22;6692;50.710;7.180;2024-03-06T10:41:08;8.70;99.90
13251;DHT22;6692;50.710;7.180;2024-03-06T10:43:10;8.90;99.90
13251;DHT22;6692;50.710;7.180;2024-03-06T10:45:11;8.80;99.90
13251;DHT22;6692;50.710;7.180;2024-03-06T10:47:11;8.90;99.90
13251;DHT22;6692;50.710;7.180;2024-03-06T10:49:11;9.00;99.90
13251;DHT22;6692;50.710;7.180;2024-03-06T10:51:12;9.10;99.90
13251;DHT22;6692;50.710;7.180;2024-03-06T10:53:13;9.20;99.90
13251;DHT22;6692;50.710;7.180;2024-03-06T10:55:13;9.30;99.90
13251;DHT22;6692;50.710;7.180;2024-03-06T10:57:14;9.40;99.90
13251;DHT22;6692;50.710;7.180;2024-03-06T10:59:15;9.50;99.90
13251;DHT22;6692;50.710;7.180;2024-03-06T11:01:15;9.60;99.90
13251;DHT22;6692;50.710;7.180;2024-03-06T11:03:16;9.70;99.90
13251;DHT22;6692;50.710;7.180;2024-03-06T11:05:17;9.70;99.90
13251;DHT22;6692;50.710;7.180;2024-03-06T11:07:17;9.70;99.90
13251;DHT22;6692;50.710;7.180;2024-03-06T11:09:19;9.80;99.90
13251;DHT22;6692;50.710;7.180;2024-03-06T11:11:20;9.80;99.90
13251;DHT22;6692;50.710;7.180;2024-03-06T11:13:23;9.80;99.90
13251;DHT22;6692;50.710;7.180;2024-03-06T11:15:24;9.90;99.90
13251;DHT22;6692;50.710;7.180;2024-03-06T11:17:25;10.00;99.90
13251;DHT22;6692;50.710;7.180;2024-03-06T11:19:26;10.20;99.90
13251;DHT22;6692;50.710;7.180;2024-03-06T11:21:28;10.40;99.90
13251;DHT22;6692;50.710;7.180;2024-03-06T11:23:30;10.80;99.90
13251;DHT22;6692;50.710;7.180;2024-03-06T11:26:13;10.80;99.90
13251;DHT22;6692;50.710;7.180;2024-03-06T11:28:03;10.90;99.90
13251;DHT22;6692;50.710;7.180;2024-03-06T11:30:07;10.80;99.90
13251;DHT22;6692;50.710;7.180;2024-03-06T11:32:11;10.70;99.90
13251;DHT22;6692;50.710;7.180;2024-03-06T11:34:12;10.70;99.90
13251;DHT22;6692;50.710;7.180;2024-03-06T11:36:23;10.70;99.90
13251;DHT22;6692;50.710;7.180;2024-03-06T11:38:24;10.50;99.90
13251;DHT22;6692;50.710;7.180;2024-03-06T11:40:25;10.50;99.90
13251;DHT22;6692;50.710;7.180;2024-03-06T11:42:33;10.50;99.90
13251;DHT22;6692;50.710;7.180;2024-03-06T11:44:34;10.40;99.90
13251;DHT22;6692;50.710;7.180;2024-03-06T11:46:48;10.40;99.90
13251;DHT22;6692;50.710;7.180;2024-03-06T11:48:53;10.40;99.90
13251;DHT22;6692;50.710;7.180;2024-03-06T11:50:53;10.60;99.90
13251;DHT22;6692;50.710;7.180;2024-03-06T11:52:54;10.80;99.90
13251;DHT22;6692;50.710;7.180;2024-03-06T11:54:55;11.00;99.90
13251;DHT22;6692;50.710;7.180;2024-03-06T11:56:56;11.10;99.90
13251;DHT22;6692;50.710;7.180;2024-03-06T11:58:56;11.20;99.90
13251;DHT22;6692;50.710;7.180;2024-03-06T12:00:57;11.30;99.90
13251;DHT22;6692;50.710;7.180;2024-03-06T12:02:59;11.20;99.90
13251;DHT22;6692;50.710;7.180;2024-03-06T12:05:01;11.10;99.90
13251;DHT22;6692;50.710;7.180;2024-03-06T12:07:00;11.10;99.90
13251;DHT22;6692;50.710;7.180;2024-03-06T12:09:01;11.10;99.90
13251;DHT22;6692;50.710;7.180;2024-03-06T12:11:02;11.10;99.90
13251;DHT22;6692;50.710;7.180;2024-03-06T12:13:03;11.00;99.90
13251;DHT22;6692;50.710;7.180;2024-03-06T12:15:04;11.00;99.90
13251;DHT22;6692;50.710;7.180;2024-03-06T12:17:05;11.00;99.90
13251;DHT22;6692;50.710;7.180;2024-03-06T12:19:06;11.10;99.90
13251;DHT22;6692;50.710;7.180;2024-03-06T12:21:07;11.20;99.90
13251;DHT22;6692;50.710;7.180;2024-03-06T12:23:08;11.30;99.90
13251;DHT22;6692;50.710;7.180;2024-03-06T12:25:09;11.40;99.90
13251;DHT22;6692;50.710;7.180;2024-03-06T12:27:10;11.30;99.90
13251;DHT22;6692;50.710;7.180;2024-03-06T12:29:12;11.40;99.90
13251;DHT22;6692;50.710;7.180;2024-03-06T12:31:14;11.30;99.90
13251;DHT22;6692;50.710;7.180;2024-03-06T12:33:17;11.40;99.90
13251;DHT22;6692;50.710;7.180;2024-03-06T12:35:30;11.40;99.90
13251;DHT22;6692;50.710;7.180;2024-03-06T12:37:32;11.40;99.90
13251;DHT22;6692;50.710;7.180;2024-03-06T12:39:32;11.40;99.90
13251;DHT22;6692;50.710;7.180;2024-03-06T12:41:33;11.40;99.90
13251;DHT22;6692;50.710;7.180;2024-03-06T12:43:34;11.40;99.90
13251;DHT22;6692;50.710;7.180;2024-03-06T12:45:36;11.40;99.90
13251;DHT22;6692;50.710;7.180;2024-03-06T12:47:36;11.40;99.90
13251;DHT22;6692;50.710;7.180;2024-03-06T12:49:37;11.40;99.90
13251;DHT22;6692;50.710;7.180;2024-03-06T12:51:37;11.60;99.90
13251;DHT22;6692;50.710;7.180;2024-03-06T12:53:38;11.80;99.90
13251;DHT22;6692;50.710;7.180;2024-03-06T12:55:39;12.10;99.90
13251;DHT22;6692;50.710;7.180;2024-03-06T12:57:40;12.30;99.90
13251;DHT22;6692;50.710;7.180;2024-03-06T12:59:40;12.20;99.90
13251;DHT22;6692;50.710;7.180;2024-03-06T13:01:42;11.90;99.90
13251;DHT22;6692;50.710;7.180;2024-03-06T13:03:42;11.90;99.90
13251;DHT22;6692;50.710;7.180;2024-03-06T13:05:43;11.70;99.90
13251;DHT22;6692;50.710;7.180;2024-03-06T13:07:44;11.80;99.90
13251;DHT22;6692;50.710;7.180;2024-03-06T13:09:45;12.10;99.90
13251;DHT22;6692;50.710;7.180;2024-03-06T13:11:45;12.00;99.90